sensor_id;sensor_type;location;lat;lon;timestamp;P1;durP1;ratioP1;P2;durP2;ratioP2
44722;SDS011;30451;48.638;10.624;2023-02-28T00:00:17;1.27;;;0.68;;
44722;SDS011;30451;48.638;10.624;2023-02-28T00:02:44;1.33;;;0.70;;
44722;SDS011;30451;48.638;10.624;2023-02-28T00:05:11;1.05;;;0.68;;
44722;SDS011;30451;48.638;10.624;2023-02-28T00:07:38;0.85;;;0.60;;
44722;SDS011;30451;48.638;10.624;2023-02-28T00:10:04;0.82;;;0.63;;
44722;SDS011;30451;48.638;10.624;2023-02-28T00:12:32;0.68;;;0.50;;
44722;SDS011;30451;48.638;10.624;2023-02-28T00:14:58;1.02;;;0.63;;
44722;SDS011;30451;48.638;10.624;2023-02-28T00:17:24;0.73;;;0.63;;
44722;SDS011;30451;48.638;10.624;2023-02-28T00:19:50;0.90;;;0.60;;
44722;SDS011;30451;48.638;10.624;2023-02-28T00:22:17;1.00;;;0.70;;
44722;SDS011;30451;48.638;10.624;2023-02-28T00:24:45;0.68;;;0.60;;
44722;SDS011;30451;48.638;10.624;2023-02-28T00:27:12;0.88;;;0.60;;
44722;SDS011;30451;48.638;10.624;2023-02-28T00:29:37;0.60;;;0.60;;
44722;SDS011;30451;48.638;10.624;2023-02-28T00:32:04;1.77;;;0.70;;
44722;SDS011;30451;48.638;10.624;2023-02-28T00:34:30;1.23;;;0.60;;
44722;SDS011;30451;48.638;10.624;2023-02-28T00:36:55;0.93;;;0.73;;
44722;SDS011;30451;48.638;10.624;2023-02-28T00:39:21;0.65;;;0.60;;
44722;SDS011;30451;48.638;10.624;2023-02-28T00:41:47;0.82;;;0.57;;
44722;SDS011;30451;48.638;10.624;2023-02-28T00:44:13;0.80;;;0.50;;
44722;SDS011;30451;48.638;10.624;2023-02-28T00:46:38;0.98;;;0.60;;
44722;SDS011;30451;48.638;10.624;2023-02-28T00:49:04;1.08;;;0.60;;
44722;SDS011;30451;48.638;10.624;2023-02-28T00:51:29;0.60;;;0.60;;
44722;SDS011;30451;48.638;10.624;2023-02-28T00:53:55;1.10;;;0.60;;
44722;SDS011;30451;48.638;10.624;2023-02-28T00:56:21;1.30;;;0.80;;
44722;SDS011;30451;48.638;10.624;2023-02-28T00:58:46;0.63;;;0.57;;
44722;SDS011;30451;48.638;10.624;2023-02-28T01:01:12;0.63;;;0.55;;
44722;SDS011;30451;48.638;10.624;2023-02-28T01:03:37;0.77;;;0.60;;
44722;SDS011;30451;48.638;10.624;2023-02-28T01:06:03;0.82;;;0.65;;
44722;SDS011;30451;48.638;10.624;2023-02-28T01:08:29;0.63;;;0.50;;
44722;SDS011;30451;48.638;10.624;2023-02-28T01:10:55;0.80;;;0.60;;
44722;SDS011;30451;48.638;10.624;2023-02-28T01:13:21;0.70;;;0.60;;
44722;SDS011;30451;48.638;10.624;2023-02-28T01:15:51;1.00;;;0.50;;
44722;SDS011;30451;48.638;10.624;2023-02-28T01:18:20;1.20;;;0.68;;
44722;SDS011;30451;48.638;10.624;2023-02-28T01:20:47;1.10;;;0.80;;
44722;SDS011;30451;48.638;10.624;2023-02-28T01:23:12;0.88;;;0.65;;
44722;SDS011;30451;48.638;10.624;2023-02-28T01:25:39;0.73;;;0.60;;
44722;SDS011;30451;48.638;10.624;2023-02-28T01:28:05;1.35;;;0.80;;
44722;SDS011;30451;48.638;10.624;2023-02-28T01:30:31;1.13;;;0.70;;
44722;SDS011;30451;48.638;10.624;2023-02-28T01:32:57;0.82;;;0.70;;
44722;SDS011;30451;48.638;10.624;2023-02-28T01:35:22;0.60;;;0.60;;
44722;SDS011;30451;48.638;10.624;2023-02-28T01:37:48;1.27;;;0.80;;
44722;SDS011;30451;48.638;10.624;2023-02-28T01:40:14;1.33;;;0.80;;
44722;SDS011;30451;48.638;10.624;2023-02-28T01:42:39;1.10;;;0.68;;
44722;SDS011;30451;48.638;10.624;2023-02-28T01:47:54;0.80;;;0.60;;
44722;SDS011;30451;48.638;10.624;2023-02-28T01:50:24;1.50;;;0.70;;
44722;SDS011;30451;48.638;10.624;2023-02-28T01:55:20;1.33;;;0.80;;
44722;SDS011;30451;48.638;10.624;2023-02-28T01:57:49;1.27;;;0.80;;
44722;SDS011;30451;48.638;10.624;2023-02-28T02:00:20;0.88;;;0.63;;
44722;SDS011;30451;48.638;10.624;2023-02-28T02:05:16;1.23;;;0.73;;
44722;SDS011;30451;48.638;10.624;2023-02-28T02:07:44;1.10;;;0.70;;
44722;SDS011;30451;48.638;10.624;2023-02-28T02:18:31;0.93;;;0.70;;
44722;SDS011;30451;48.638;10.624;2023-02-28T02:26:31;1.00;;;0.70;;
44722;SDS011;30451;48.638;10.624;2023-02-28T02:37:34;0.98;;;0.73;;
44722;SDS011;30451;48.638;10.624;2023-02-28T02:42:41;1.58;;;0.80;;
44722;SDS011;30451;48.638;10.624;2023-02-28T02:48:08;0.85;;;0.70;;
44722;SDS011;30451;48.638;10.624;2023-02-28T02:50:39;0.80;;;0.60;;
44722;SDS011;30451;48.638;10.624;2023-02-28T02:53:09;1.00;;;0.80;;
44722;SDS011;30451;48.638;10.624;2023-02-28T02:55:39;0.90;;;0.70;;
44722;SDS011;30451;48.638;10.624;2023-02-28T02:58:10;0.90;;;0.70;;
44722;SDS011;30451;48.638;10.624;2023-02-28T03:00:41;0.90;;;0.63;;
44722;SDS011;30451;48.638;10.624;2023-02-28T03:03:19;1.15;;;0.70;;
44722;SDS011;30451;48.638;10.624;2023-02-28T03:05:54;0.93;;;0.70;;
44722;SDS011;30451;48.638;10.624;2023-02-28T03:08:24;0.82;;;0.63;;
44722;SDS011;30451;48.638;10.624;2023-02-28T03:10:51;0.98;;;0.65;;
44722;SDS011;30451;48.638;10.624;2023-02-28T03:19:52;0.90;;;0.80;;
44722;SDS011;30451;48.638;10.624;2023-02-28T03:25:10;1.63;;;0.65;;
44722;SDS011;30451;48.638;10.624;2023-02-28T03:30:27;0.90;;;0.70;;
44722;SDS011;30451;48.638;10.624;2023-02-28T03:32:59;1.15;;;0.60;;
44722;SDS011;30451;48.638;10.624;2023-02-28T03:35:36;0.82;;;0.70;;
44722;SDS011;30451;48.638;10.624;2023-02-28T03:38:07;1.10;;;0.63;;
44722;SDS011;30451;48.638;10.624;2023-02-28T03:40:38;1.20;;;0.85;;
44722;SDS011;30451;48.638;10.624;2023-02-28T03:43:09;0.80;;;0.60;;
44722;SDS011;30451;48.638;10.624;2023-02-28T03:45:39;0.90;;;0.60;;
44722;SDS011;30451;48.638;10.624;2023-02-28T03:48:08;0.85;;;0.63;;
44722;SDS011;30451;48.638;10.624;2023-02-28T03:50:44;0.93;;;0.70;;
44722;SDS011;30451;48.638;10.624;2023-02-28T03:53:16;0.70;;;0.68;;
44722;SDS011;30451;48.638;10.624;2023-02-28T03:55:48;1.02;;;0.70;;
44722;SDS011;30451;48.638;10.624;2023-02-28T04:03:52;0.95;;;0.70;;
44722;SDS011;30451;48.638;10.624;2023-02-28T04:06:19;1.02;;;0.70;;
44722;SDS011;30451;48.638;10.624;2023-02-28T04:08:47;1.15;;;0.60;;
44722;SDS011;30451;48.638;10.624;2023-02-28T04:13:50;0.88;;;0.70;;
44722;SDS011;30451;48.638;10.624;2023-02-28T04:16:16;0.85;;;0.70;;
44722;SDS011;30451;48.638;10.624;2023-02-28T04:18:41;1.00;;;0.70;;
44722;SDS011;30451;48.638;10.624;2023-02-28T04:21:10;0.82;;;0.60;;
44722;SDS011;30451;48.638;10.624;2023-02-28T04:23:37;0.82;;;0.70;;
44722;SDS011;30451;48.638;10.624;2023-02-28T04:26:02;0.95;;;0.70;;
44722;SDS011;30451;48.638;10.624;2023-02-28T04:28:30;0.90;;;0.60;;
44722;SDS011;30451;48.638;10.624;2023-02-28T04:30:56;0.57;;;0.57;;
44722;SDS011;30451;48.638;10.624;2023-02-28T04:33:22;0.57;;;0.57;;
44722;SDS011;30451;48.638;10.624;2023-02-28T04:35:57;1.00;;;0.65;;
44722;SDS011;30451;48.638;10.624;2023-02-28T04:38:23;1.00;;;0.63;;
44722;SDS011;30451;48.638;10.624;2023-02-28T04:40:49;0.70;;;0.50;;
44722;SDS011;30451;48.638;10.624;2023-02-28T04:43:14;0.82;;;0.70;;
44722;SDS011;30451;48.638;10.624;2023-02-28T04:45:40;0.57;;;0.57;;
44722;SDS011;30451;48.638;10.624;2023-02-28T04:48:06;0.63;;;0.60;;
44722;SDS011;30451;48.638;10.624;2023-02-28T04:50:31;0.85;;;0.60;;
44722;SDS011;30451;48.638;10.624;2023-02-28T04:52:57;1.08;;;0.70;;
44722;SDS011;30451;48.638;10.624;2023-02-28T04:55:22;1.00;;;0.80;;
44722;SDS011;30451;48.638;10.624;2023-02-28T04:57:48;1.00;;;0.70;;
44722;SDS011;30451;48.638;10.624;2023-02-28T05:00:13;1.08;;;0.75;;
44722;SDS011;30451;48.638;10.624;2023-02-28T05:02:41;1.02;;;0.70;;
44722;SDS011;30451;48.638;10.624;2023-02-28T05:05:07;1.05;;;0.85;;
44722;SDS011;30451;48.638;10.624;2023-02-28T05:07:33;1.23;;;0.70;;
44722;SDS011;30451;48.638;10.624;2023-02-28T05:09:59;0.85;;;0.60;;
44722;SDS011;30451;48.638;10.624;2023-02-28T05:12:24;1.10;;;0.70;;
44722;SDS011;30451;48.638;10.624;2023-02-28T05:14:50;1.05;;;0.60;;
44722;SDS011;30451;48.638;10.624;2023-02-28T05:17:16;0.98;;;0.70;;
44722;SDS011;30451;48.638;10.624;2023-02-28T05:19:41;0.80;;;0.70;;
44722;SDS011;30451;48.638;10.624;2023-02-28T05:22:12;1.05;;;0.70;;
44722;SDS011;30451;48.638;10.624;2023-02-28T05:24:40;1.10;;;0.80;;
44722;SDS011;30451;48.638;10.624;2023-02-28T05:27:07;1.10;;;0.70;;
44722;SDS011;30451;48.638;10.624;2023-02-28T05:29:33;1.27;;;0.68;;
44722;SDS011;30451;48.638;10.624;2023-02-28T05:32:11;0.80;;;0.70;;
44722;SDS011;30451;48.638;10.624;2023-02-28T05:34:37;0.90;;;0.70;;
44722;SDS011;30451;48.638;10.624;2023-02-28T05:37:04;1.02;;;0.70;;
44722;SDS011;30451;48.638;10.624;2023-02-28T05:39:30;1.00;;;0.60;;
44722;SDS011;30451;48.638;10.624;2023-02-28T05:41:56;1.30;;;0.80;;
44722;SDS011;30451;48.638;10.624;2023-02-28T05:44:22;0.85;;;0.65;;
44722;SDS011;30451;48.638;10.624;2023-02-28T05:46:47;1.17;;;0.77;;
44722;SDS011;30451;48.638;10.624;2023-02-28T05:49:13;1.02;;;0.60;;
44722;SDS011;30451;48.638;10.624;2023-02-28T05:51:39;1.08;;;0.82;;
44722;SDS011;30451;48.638;10.624;2023-02-28T05:54:05;1.33;;;0.70;;
44722;SDS011;30451;48.638;10.624;2023-02-28T05:56:31;1.38;;;0.70;;
44722;SDS011;30451;48.638;10.624;2023-02-28T05:58:59;1.08;;;0.70;;
44722;SDS011;30451;48.638;10.624;2023-02-28T06:01:41;1.00;;;0.68;;
44722;SDS011;30451;48.638;10.624;2023-02-28T06:04:13;0.93;;;0.70;;
44722;SDS011;30451;48.638;10.624;2023-02-28T06:06:46;1.38;;;0.70;;
44722;SDS011;30451;48.638;10.624;2023-02-28T06:09:12;1.38;;;0.80;;
44722;SDS011;30451;48.638;10.624;2023-02-28T06:11:38;1.10;;;0.73;;
44722;SDS011;30451;48.638;10.624;2023-02-28T06:14:04;0.70;;;0.70;;
44722;SDS011;30451;48.638;10.624;2023-02-28T06:16:31;1.40;;;0.70;;
44722;SDS011;30451;48.638;10.624;2023-02-28T06:19:00;1.45;;;0.80;;
44722;SDS011;30451;48.638;10.624;2023-02-28T06:21:28;1.42;;;0.80;;
44722;SDS011;30451;48.638;10.624;2023-02-28T06:23:54;0.73;;;0.60;;
44722;SDS011;30451;48.638;10.624;2023-02-28T06:26:21;0.75;;;0.60;;
44722;SDS011;30451;48.638;10.624;2023-02-28T06:28:46;0.98;;;0.70;;
44722;SDS011;30451;48.638;10.624;2023-02-28T06:31:13;1.23;;;0.60;;
44722;SDS011;30451;48.638;10.624;2023-02-28T06:33:41;0.68;;;0.55;;
44722;SDS011;30451;48.638;10.624;2023-02-28T06:36:08;0.90;;;0.60;;
44722;SDS011;30451;48.638;10.624;2023-02-28T06:38:35;1.00;;;0.70;;
44722;SDS011;30451;48.638;10.624;2023-02-28T06:41:01;1.33;;;0.68;;
44722;SDS011;30451;48.638;10.624;2023-02-28T06:43:28;0.98;;;0.70;;
44722;SDS011;30451;48.638;10.624;2023-02-28T06:45:56;0.80;;;0.60;;
44722;SDS011;30451;48.638;10.624;2023-02-28T06:48:25;0.70;;;0.60;;
44722;SDS011;30451;48.638;10.624;2023-02-28T06:50:52;1.33;;;0.90;;
44722;SDS011;30451;48.638;10.624;2023-02-28T06:53:25;1.73;;;0.90;;
44722;SDS011;30451;48.638;10.624;2023-02-28T06:55:51;1.20;;;0.70;;
44722;SDS011;30451;48.638;10.624;2023-02-28T06:58:16;1.95;;;1.00;;
44722;SDS011;30451;48.638;10.624;2023-02-28T07:00:45;1.10;;;0.80;;
44722;SDS011;30451;48.638;10.624;2023-02-28T07:03:15;1.92;;;0.90;;
44722;SDS011;30451;48.638;10.624;2023-02-28T07:05:42;1.13;;;0.80;;
44722;SDS011;30451;48.638;10.624;2023-02-28T07:08:08;2.65;;;0.80;;
44722;SDS011;30451;48.638;10.624;2023-02-28T07:10:33;1.98;;;1.05;;
44722;SDS011;30451;48.638;10.624;2023-02-28T07:13:01;1.38;;;0.88;;
44722;SDS011;30451;48.638;10.624;2023-02-28T07:15:29;1.20;;;0.70;;
44722;SDS011;30451;48.638;10.624;2023-02-28T07:17:55;0.98;;;0.63;;
44722;SDS011;30451;48.638;10.624;2023-02-28T07:20:21;1.20;;;0.70;;
44722;SDS011;30451;48.638;10.624;2023-02-28T07:22:48;1.35;;;0.80;;
44722;SDS011;30451;48.638;10.624;2023-02-28T07:25:20;1.30;;;0.80;;
44722;SDS011;30451;48.638;10.624;2023-02-28T07:27:53;1.55;;;0.80;;
44722;SDS011;30451;48.638;10.624;2023-02-28T07:30:19;1.10;;;0.75;;
44722;SDS011;30451;48.638;10.624;2023-02-28T07:32:45;0.82;;;0.50;;
44722;SDS011;30451;48.638;10.624;2023-02-28T07:35:11;1.00;;;0.70;;
44722;SDS011;30451;48.638;10.624;2023-02-28T07:37:37;0.70;;;0.60;;
44722;SDS011;30451;48.638;10.624;2023-02-28T07:40:03;1.50;;;0.90;;
44722;SDS011;30451;48.638;10.624;2023-02-28T07:42:34;1.42;;;0.98;;
44722;SDS011;30451;48.638;10.624;2023-02-28T07:45:00;1.40;;;0.90;;
44722;SDS011;30451;48.638;10.624;2023-02-28T07:47:26;1.20;;;0.85;;
44722;SDS011;30451;48.638;10.624;2023-02-28T07:49:54;1.55;;;0.88;;
44722;SDS011;30451;48.638;10.624;2023-02-28T07:52:20;1.83;;;0.85;;
44722;SDS011;30451;48.638;10.624;2023-02-28T07:54:45;1.38;;;0.82;;
44722;SDS011;30451;48.638;10.624;2023-02-28T07:57:11;1.23;;;0.70;;
44722;SDS011;30451;48.638;10.624;2023-02-28T07:59:36;1.25;;;0.90;;
44722;SDS011;30451;48.638;10.624;2023-02-28T08:02:02;1.52;;;0.85;;
44722;SDS011;30451;48.638;10.624;2023-02-28T08:04:27;0.88;;;0.68;;
44722;SDS011;30451;48.638;10.624;2023-02-28T08:06:57;2.55;;;0.80;;
44722;SDS011;30451;48.638;10.624;2023-02-28T08:09:22;1.40;;;0.80;;
44722;SDS011;30451;48.638;10.624;2023-02-28T08:11:48;1.75;;;0.90;;
44722;SDS011;30451;48.638;10.624;2023-02-28T08:14:14;1.60;;;0.90;;
44722;SDS011;30451;48.638;10.624;2023-02-28T08:16:39;1.20;;;0.90;;
44722;SDS011;30451;48.638;10.624;2023-02-28T08:19:05;1.33;;;0.80;;
44722;SDS011;30451;48.638;10.624;2023-02-28T08:21:30;1.48;;;0.80;;
44722;SDS011;30451;48.638;10.624;2023-02-28T08:23:57;0.82;;;0.70;;
44722;SDS011;30451;48.638;10.624;2023-02-28T08:26:23;1.33;;;0.82;;
44722;SDS011;30451;48.638;10.624;2023-02-28T08:28:49;2.42;;;0.90;;
44722;SDS011;30451;48.638;10.624;2023-02-28T08:31:15;0.93;;;0.80;;
44722;SDS011;30451;48.638;10.624;2023-02-28T08:33:41;1.55;;;0.80;;
44722;SDS011;30451;48.638;10.624;2023-02-28T08:36:07;1.38;;;0.80;;
44722;SDS011;30451;48.638;10.624;2023-02-28T08:38:34;1.00;;;0.75;;
44722;SDS011;30451;48.638;10.624;2023-02-28T08:41:02;1.58;;;0.85;;
44722;SDS011;30451;48.638;10.624;2023-02-28T08:43:32;1.38;;;0.70;;
44722;SDS011;30451;48.638;10.624;2023-02-28T08:45:58;1.65;;;0.90;;
44722;SDS011;30451;48.638;10.624;2023-02-28T08:48:27;1.63;;;0.80;;
44722;SDS011;30451;48.638;10.624;2023-02-28T08:50:57;1.55;;;0.80;;
44722;SDS011;30451;48.638;10.624;2023-02-28T08:53:25;1.42;;;0.80;;
44722;SDS011;30451;48.638;10.624;2023-02-28T08:55:57;1.48;;;0.98;;
44722;SDS011;30451;48.638;10.624;2023-02-28T08:58:27;1.27;;;0.90;;
44722;SDS011;30451;48.638;10.624;2023-02-28T09:00:53;1.20;;;0.80;;
44722;SDS011;30451;48.638;10.624;2023-02-28T09:03:20;1.48;;;0.80;;
44722;SDS011;30451;48.638;10.624;2023-02-28T09:06:19;1.45;;;0.90;;
44722;SDS011;30451;48.638;10.624;2023-02-28T09:08:38;1.77;;;1.02;;
44722;SDS011;30451;48.638;10.624;2023-02-28T09:11:04;1.85;;;0.90;;
44722;SDS011;30451;48.638;10.624;2023-02-28T09:13:30;1.25;;;0.80;;
44722;SDS011;30451;48.638;10.624;2023-02-28T09:15:58;1.73;;;0.98;;
44722;SDS011;30451;48.638;10.624;2023-02-28T09:18:25;1.60;;;1.00;;
44722;SDS011;30451;48.638;10.624;2023-02-28T09:20:51;1.52;;;0.98;;
44722;SDS011;30451;48.638;10.624;2023-02-28T09:23:17;1.95;;;1.00;;
44722;SDS011;30451;48.638;10.624;2023-02-28T09:25:50;1.50;;;0.82;;
44722;SDS011;30451;48.638;10.624;2023-02-28T09:28:17;1.50;;;1.02;;
44722;SDS011;30451;48.638;10.624;2023-02-28T09:30:44;1.23;;;0.80;;
44722;SDS011;30451;48.638;10.624;2023-02-28T09:33:12;1.50;;;0.90;;
44722;SDS011;30451;48.638;10.624;2023-02-28T09:35:39;1.45;;;0.90;;
44722;SDS011;30451;48.638;10.624;2023-02-28T09:38:04;1.40;;;0.90;;
44722;SDS011;30451;48.638;10.624;2023-02-28T09:40:34;2.05;;;0.90;;
44722;SDS011;30451;48.638;10.624;2023-02-28T09:43:02;1.67;;;0.90;;
44722;SDS011;30451;48.638;10.624;2023-02-28T09:45:31;1.38;;;0.93;;
44722;SDS011;30451;48.638;10.624;2023-02-28T09:47:59;1.60;;;0.95;;
44722;SDS011;30451;48.638;10.624;2023-02-28T09:52:57;1.65;;;0.95;;
44722;SDS011;30451;48.638;10.624;2023-02-28T09:58:11;2.03;;;1.10;;
44722;SDS011;30451;48.638;10.624;2023-02-28T10:00:46;1.90;;;1.13;;
44722;SDS011;30451;48.638;10.624;2023-02-28T10:03:25;1.20;;;0.90;;
44722;SDS011;30451;48.638;10.624;2023-02-28T10:06:05;1.30;;;1.00;;
44722;SDS011;30451;48.638;10.624;2023-02-28T10:11:26;1.15;;;0.73;;
44722;SDS011;30451;48.638;10.624;2023-02-28T10:13:54;1.48;;;0.80;;
44722;SDS011;30451;48.638;10.624;2023-02-28T10:16:36;1.60;;;0.95;;
44722;SDS011;30451;48.638;10.624;2023-02-28T10:19:15;2.50;;;1.05;;
44722;SDS011;30451;48.638;10.624;2023-02-28T10:21:59;2.53;;;1.00;;
44722;SDS011;30451;48.638;10.624;2023-02-28T10:24:39;2.00;;;1.00;;
44722;SDS011;30451;48.638;10.624;2023-02-28T10:27:20;1.55;;;0.95;;
44722;SDS011;30451;48.638;10.624;2023-02-28T10:29:52;1.45;;;0.90;;
44722;SDS011;30451;48.638;10.624;2023-02-28T10:32:49;1.83;;;1.20;;
44722;SDS011;30451;48.638;10.624;2023-02-28T10:37:40;2.28;;;1.30;;
44722;SDS011;30451;48.638;10.624;2023-02-28T10:40:24;2.30;;;1.50;;
44722;SDS011;30451;48.638;10.624;2023-02-28T10:43:01;2.40;;;1.30;;
44722;SDS011;30451;48.638;10.624;2023-02-28T10:45:34;3.63;;;1.50;;
44722;SDS011;30451;48.638;10.624;2023-02-28T10:51:01;2.50;;;1.48;;
44722;SDS011;30451;48.638;10.624;2023-02-28T10:53:39;3.60;;;1.48;;
44722;SDS011;30451;48.638;10.624;2023-02-28T10:56:19;2.40;;;1.40;;
44722;SDS011;30451;48.638;10.624;2023-02-28T10:58:54;1.98;;;1.20;;
44722;SDS011;30451;48.638;10.624;2023-02-28T11:01:41;2.65;;;1.58;;
44722;SDS011;30451;48.638;10.624;2023-02-28T11:06:57;1.95;;;1.27;;
44722;SDS011;30451;48.638;10.624;2023-02-28T11:09:26;1.83;;;1.10;;
44722;SDS011;30451;48.638;10.624;2023-02-28T11:11:55;2.25;;;1.33;;
44722;SDS011;30451;48.638;10.624;2023-02-28T11:14:25;2.00;;;1.20;;
44722;SDS011;30451;48.638;10.624;2023-02-28T11:16:53;1.95;;;1.23;;
44722;SDS011;30451;48.638;10.624;2023-02-28T11:19:26;2.03;;;1.20;;
44722;SDS011;30451;48.638;10.624;2023-02-28T11:21:57;2.30;;;1.30;;
44722;SDS011;30451;48.638;10.624;2023-02-28T11:24:27;2.03;;;1.23;;
44722;SDS011;30451;48.638;10.624;2023-02-28T11:26:54;2.05;;;1.10;;
44722;SDS011;30451;48.638;10.624;2023-02-28T11:29:21;3.22;;;1.38;;
44722;SDS011;30451;48.638;10.624;2023-02-28T11:34:29;1.80;;;1.25;;
44722;SDS011;30451;48.638;10.624;2023-02-28T11:36:55;2.50;;;1.48;;
44722;SDS011;30451;48.638;10.624;2023-02-28T11:39:22;2.17;;;1.10;;
44722;SDS011;30451;48.638;10.624;2023-02-28T11:42:07;2.08;;;1.20;;
44722;SDS011;30451;48.638;10.624;2023-02-28T11:58:14;2.00;;;1.23;;
44722;SDS011;30451;48.638;10.624;2023-02-28T12:03:45;2.17;;;1.40;;
44722;SDS011;30451;48.638;10.624;2023-02-28T12:06:32;1.80;;;1.15;;
44722;SDS011;30451;48.638;10.624;2023-02-28T12:11:44;2.10;;;1.30;;
44722;SDS011;30451;48.638;10.624;2023-02-28T12:17:11;3.28;;;1.45;;
44722;SDS011;30451;48.638;10.624;2023-02-28T12:22:50;2.05;;;1.30;;
44722;SDS011;30451;48.638;10.624;2023-02-28T12:25:45;3.63;;;1.50;;
44722;SDS011;30451;48.638;10.624;2023-02-28T12:28:38;1.98;;;1.20;;
44722;SDS011;30451;48.638;10.624;2023-02-28T12:31:14;1.92;;;1.08;;
44722;SDS011;30451;48.638;10.624;2023-02-28T12:33:56;1.83;;;1.17;;
44722;SDS011;30451;48.638;10.624;2023-02-28T12:36:28;1.85;;;1.10;;
44722;SDS011;30451;48.638;10.624;2023-02-28T12:38:58;2.22;;;1.38;;
44722;SDS011;30451;48.638;10.624;2023-02-28T12:41:47;2.15;;;1.40;;
44722;SDS011;30451;48.638;10.624;2023-02-28T12:44:20;2.80;;;1.58;;
44722;SDS011;30451;48.638;10.624;2023-02-28T12:46:54;2.13;;;1.38;;
44722;SDS011;30451;48.638;10.624;2023-02-28T12:49:27;2.70;;;1.35;;
44722;SDS011;30451;48.638;10.624;2023-02-28T12:52:15;2.38;;;1.48;;
44722;SDS011;30451;48.638;10.624;2023-02-28T12:57:34;2.30;;;1.40;;
44722;SDS011;30451;48.638;10.624;2023-02-28T13:00:19;2.72;;;1.45;;
44722;SDS011;30451;48.638;10.624;2023-02-28T13:11:23;2.72;;;1.60;;
44722;SDS011;30451;48.638;10.624;2023-02-28T13:14:05;1.98;;;1.25;;
44722;SDS011;30451;48.638;10.624;2023-02-28T13:19:40;2.25;;;1.30;;
44722;SDS011;30451;48.638;10.624;2023-02-28T13:22:20;2.33;;;1.10;;
44722;SDS011;30451;48.638;10.624;2023-02-28T13:25:50;2.92;;;1.40;;
44722;SDS011;30451;48.638;10.624;2023-02-28T13:27:51;2.47;;;1.40;;
44722;SDS011;30451;48.638;10.624;2023-02-28T13:38:41;2.05;;;1.15;;
44722;SDS011;30451;48.638;10.624;2023-02-28T13:44:05;1.88;;;1.10;;
44722;SDS011;30451;48.638;10.624;2023-02-28T13:46:32;2.20;;;1.30;;
44722;SDS011;30451;48.638;10.624;2023-02-28T14:00:42;1.67;;;1.00;;
44722;SDS011;30451;48.638;10.624;2023-02-28T14:06:08;1.67;;;1.10;;
44722;SDS011;30451;48.638;10.624;2023-02-28T14:09:23;2.47;;;1.20;;
44722;SDS011;30451;48.638;10.624;2023-02-28T14:11:40;2.28;;;1.35;;
44722;SDS011;30451;48.638;10.624;2023-02-28T14:14:09;2.60;;;1.40;;
44722;SDS011;30451;48.638;10.624;2023-02-28T14:16:55;2.53;;;1.48;;
44722;SDS011;30451;48.638;10.624;2023-02-28T14:19:24;2.38;;;1.30;;
44722;SDS011;30451;48.638;10.624;2023-02-28T14:27:45;2.33;;;1.20;;
44722;SDS011;30451;48.638;10.624;2023-02-28T14:33:38;3.00;;;1.40;;
44722;SDS011;30451;48.638;10.624;2023-02-28T14:39:22;2.80;;;1.30;;
44722;SDS011;30451;48.638;10.624;2023-02-28T14:41:50;2.28;;;1.25;;
44722;SDS011;30451;48.638;10.624;2023-02-28T14:46:42;2.80;;;1.42;;
44722;SDS011;30451;48.638;10.624;2023-02-28T14:49:12;2.45;;;1.20;;
44722;SDS011;30451;48.638;10.624;2023-02-28T14:54:40;2.22;;;1.23;;
44722;SDS011;30451;48.638;10.624;2023-02-28T14:57:06;2.00;;;1.15;;
44722;SDS011;30451;48.638;10.624;2023-02-28T14:59:45;2.40;;;1.30;;
44722;SDS011;30451;48.638;10.624;2023-02-28T15:02:21;3.47;;;1.48;;
44722;SDS011;30451;48.638;10.624;2023-02-28T15:04:56;2.65;;;1.50;;
44722;SDS011;30451;48.638;10.624;2023-02-28T15:07:26;3.72;;;1.63;;
44722;SDS011;30451;48.638;10.624;2023-02-28T15:10:08;2.42;;;1.40;;
44722;SDS011;30451;48.638;10.624;2023-02-28T15:12:56;3.33;;;1.40;;
44722;SDS011;30451;48.638;10.624;2023-02-28T15:15:33;3.17;;;1.30;;
44722;SDS011;30451;48.638;10.624;2023-02-28T15:20:51;1.73;;;1.30;;
44722;SDS011;30451;48.638;10.624;2023-02-28T15:23:18;2.38;;;1.30;;
44722;SDS011;30451;48.638;10.624;2023-02-28T15:25:45;2.90;;;1.40;;
44722;SDS011;30451;48.638;10.624;2023-02-28T15:28:13;3.92;;;1.38;;
44722;SDS011;30451;48.638;10.624;2023-02-28T15:30:50;3.10;;;1.40;;
44722;SDS011;30451;48.638;10.624;2023-02-28T15:35:43;2.35;;;1.40;;
44722;SDS011;30451;48.638;10.624;2023-02-28T15:38:25;2.05;;;1.30;;
44722;SDS011;30451;48.638;10.624;2023-02-28T15:40:56;2.63;;;1.38;;
44722;SDS011;30451;48.638;10.624;2023-02-28T15:46:02;2.38;;;1.17;;
44722;SDS011;30451;48.638;10.624;2023-02-28T15:48:38;2.28;;;1.20;;
44722;SDS011;30451;48.638;10.624;2023-02-28T15:51:20;3.75;;;1.30;;
44722;SDS011;30451;48.638;10.624;2023-02-28T15:54:08;2.60;;;1.33;;
44722;SDS011;30451;48.638;10.624;2023-02-28T15:56:46;2.67;;;1.20;;
44722;SDS011;30451;48.638;10.624;2023-02-28T15:59:27;2.67;;;1.23;;
44722;SDS011;30451;48.638;10.624;2023-02-28T16:04:54;2.67;;;1.42;;
44722;SDS011;30451;48.638;10.624;2023-02-28T16:07:26;2.35;;;1.40;;
44722;SDS011;30451;48.638;10.624;2023-02-28T16:09:52;2.58;;;1.25;;
44722;SDS011;30451;48.638;10.624;2023-02-28T16:12:19;1.90;;;1.15;;
44722;SDS011;30451;48.638;10.624;2023-02-28T16:14:49;2.88;;;1.38;;
44722;SDS011;30451;48.638;10.624;2023-02-28T16:17:21;2.15;;;1.10;;
44722;SDS011;30451;48.638;10.624;2023-02-28T16:19:49;2.40;;;1.20;;
44722;SDS011;30451;48.638;10.624;2023-02-28T16:22:15;1.70;;;1.10;;
44722;SDS011;30451;48.638;10.624;2023-02-28T16:24:40;2.40;;;1.40;;
44722;SDS011;30451;48.638;10.624;2023-02-28T16:27:06;3.15;;;1.35;;
44722;SDS011;30451;48.638;10.624;2023-02-28T16:29:39;2.72;;;1.10;;
44722;SDS011;30451;48.638;10.624;2023-02-28T16:32:05;2.35;;;1.10;;
44722;SDS011;30451;48.638;10.624;2023-02-28T16:34:31;1.38;;;0.90;;
44722;SDS011;30451;48.638;10.624;2023-02-28T16:36:58;1.60;;;1.10;;
44722;SDS011;30451;48.638;10.624;2023-02-28T16:39:24;1.45;;;1.00;;
44722;SDS011;30451;48.638;10.624;2023-02-28T16:41:50;2.50;;;1.10;;
44722;SDS011;30451;48.638;10.624;2023-02-28T16:46:51;1.63;;;1.13;;
44722;SDS011;30451;48.638;10.624;2023-02-28T16:49:16;1.45;;;1.02;;
44722;SDS011;30451;48.638;10.624;2023-02-28T16:51:42;3.42;;;1.33;;
44722;SDS011;30451;48.638;10.624;2023-02-28T16:54:07;2.95;;;1.38;;
44722;SDS011;30451;48.638;10.624;2023-02-28T16:56:33;2.75;;;1.33;;
44722;SDS011;30451;48.638;10.624;2023-02-28T16:59:00;2.50;;;1.25;;
44722;SDS011;30451;48.638;10.624;2023-02-28T17:01:26;2.58;;;1.20;;
44722;SDS011;30451;48.638;10.624;2023-02-28T17:03:53;2.22;;;1.20;;
44722;SDS011;30451;48.638;10.624;2023-02-28T17:06:24;2.25;;;1.40;;
44722;SDS011;30451;48.638;10.624;2023-02-28T17:08:53;2.38;;;1.27;;
44722;SDS011;30451;48.638;10.624;2023-02-28T17:11:20;2.05;;;1.20;;
44722;SDS011;30451;48.638;10.624;2023-02-28T17:13:46;2.17;;;1.20;;
44722;SDS011;30451;48.638;10.624;2023-02-28T17:16:17;1.65;;;1.10;;
44722;SDS011;30451;48.638;10.624;2023-02-28T17:18:53;1.73;;;1.15;;
44722;SDS011;30451;48.638;10.624;2023-02-28T17:21:21;1.92;;;1.13;;
44722;SDS011;30451;48.638;10.624;2023-02-28T17:23:47;2.47;;;1.30;;
44722;SDS011;30451;48.638;10.624;2023-02-28T17:26:13;2.00;;;1.20;;
44722;SDS011;30451;48.638;10.624;2023-02-28T17:28:42;2.53;;;1.45;;
44722;SDS011;30451;48.638;10.624;2023-02-28T17:31:08;2.15;;;1.15;;
44722;SDS011;30451;48.638;10.624;2023-02-28T17:33:34;3.83;;;1.30;;
44722;SDS011;30451;48.638;10.624;2023-02-28T17:36:00;2.08;;;1.20;;
44722;SDS011;30451;48.638;10.624;2023-02-28T17:38:26;2.00;;;1.20;;